createdAt,value
2023-05-18T00:00:49.814Z,76.39
2023-05-18T00:05:51.664Z,75.73
2023-05-18T00:10:55.200Z,75.26
2023-05-18T00:15:57.368Z,74.83
2023-05-18T00:20:59.280Z,74.31
2023-05-18T00:26:02.990Z,73.64
2023-05-18T00:31:04.736Z,73.76
2023-05-18T00:36:07.086Z,73.74
2023-05-18T00:41:10.221Z,74.29
2023-05-18T00:46:12.009Z,74.16
2023-05-18T00:51:14.191Z,73.55
2023-05-18T00:56:17.727Z,73.35
2023-05-18T01:01:20.576Z,73.76
2023-05-18T01:06:22.850Z,73.93
2023-05-18T01:11:38.100Z,74.79
2023-05-18T01:16:45.440Z,74.17
2023-05-18T01:21:56.583Z,75.35
2023-05-18T01:27:00.688Z,74.35
2023-05-18T01:32:06.704Z,74.51
2023-05-18T01:37:08.454Z,74.53
2023-05-18T01:42:15.451Z,73.88
2023-05-18T01:47:18.211Z,74.53
2023-05-18T01:52:22.947Z,74.48
2023-05-18T01:57:29.481Z,74.65
2023-05-18T02:02:31.544Z,74.14
2023-05-18T02:07:33.290Z,74.37
2023-05-18T02:12:36.583Z,74.91
2023-05-18T02:17:38.429Z,74.16
2023-05-18T02:22:40.198Z,74.20
2023-05-18T02:27:43.310Z,74.11
2023-05-18T02:32:45.262Z,74.31
2023-05-18T02:37:46.991Z,75.03
2023-05-18T02:42:50.043Z,75.17
2023-05-18T02:47:51.889Z,75.35
2023-05-18T02:52:53.588Z,74.35
2023-05-18T02:57:56.669Z,74.83
2023-05-18T03:02:58.534Z,74.97
2023-05-18T03:08:00.298Z,74.93
2023-05-18T03:13:03.385Z,75.94
2023-05-18T03:18:05.510Z,75.25
2023-05-18T03:23:07.272Z,75.32
2023-05-18T03:28:10.378Z,75.65
2023-05-18T03:33:12.181Z,75.08
2023-05-18T03:38:14.000Z,75.89
2023-05-18T03:43:17.098Z,75.69
2023-05-18T03:48:18.906Z,75.90
2023-05-18T03:53:20.668Z,74.88
2023-05-18T03:58:23.716Z,76.04
2023-05-18T04:03:25.583Z,75.68
2023-05-18T04:08:27.457Z,76.40
2023-05-18T04:13:30.726Z,75.87
2023-05-18T04:18:32.522Z,75.50
2023-05-18T04:23:34.300Z,76.39
2023-05-18T04:28:37.341Z,75.92
2023-05-18T04:33:39.084Z,75.66
2023-05-18T04:38:40.786Z,76.47
2023-05-18T04:43:43.881Z,75.62
2023-05-18T04:48:45.534Z,75.88
2023-05-18T04:53:47.574Z,76.16
2023-05-18T04:58:50.794Z,74.40
2023-05-18T05:03:52.580Z,73.88
2023-05-18T05:08:54.652Z,71.78
2023-05-18T05:13:57.856Z,71.53
2023-05-18T05:18:59.584Z,69.78
2023-05-18T05:24:01.285Z,69.66
2023-05-18T05:29:04.328Z,68.71
2023-05-18T05:34:05.982Z,67.76
2023-05-18T05:39:07.663Z,66.72
2023-05-18T05:44:10.831Z,66.54
2023-05-18T05:49:12.578Z,65.89
2023-05-18T05:54:14.558Z,64.41
2023-05-18T05:59:17.690Z,62.77
2023-05-18T06:04:19.358Z,62.42
2023-05-18T06:09:21.082Z,62.04
2023-05-18T06:14:24.360Z,60.37
2023-05-18T06:19:26.107Z,59.84
2023-05-18T06:24:27.819Z,58.97
2023-05-18T06:29:30.885Z,56.67
2023-05-18T06:34:32.586Z,58.28
2023-05-18T06:39:34.282Z,57.39
2023-05-18T06:44:37.279Z,54.77
2023-05-18T06:49:38.990Z,56.75
2023-05-18T06:54:40.685Z,55.98
2023-05-18T06:59:43.740Z,56.29
2023-05-18T07:04:45.472Z,56.57
2023-05-18T07:09:47.155Z,54.63
2023-05-18T07:14:50.298Z,52.90
2023-05-18T07:19:52.094Z,52.40
2023-05-18T07:24:53.805Z,53.79
2023-05-18T07:29:56.945Z,54.31
2023-05-18T07:34:58.705Z,51.83
2023-05-18T07:40:00.397Z,52.40
2023-05-18T07:45:03.894Z,52.21
2023-05-18T07:50:06.568Z,52.70
2023-05-18T07:55:08.803Z,51.16
2023-05-18T08:00:13.577Z,52.40
2023-05-18T08:05:15.285Z,52.93
2023-05-18T08:10:16.938Z,52.76
2023-05-18T08:15:20.078Z,56.29
2023-05-18T08:20:21.779Z,54.87
2023-05-18T08:25:23.830Z,55.37
2023-05-18T08:30:26.974Z,54.15
2023-05-18T08:35:29.081Z,55.95
2023-05-18T08:40:38.537Z,54.94
2023-05-18T08:45:48.900Z,55.06
2023-05-18T08:50:53.322Z,55.91
2023-05-18T08:55:56.349Z,55.48
2023-05-18T09:01:03.759Z,54.75
2023-05-18T09:06:07.017Z,59.86
2023-05-18T09:11:08.973Z,63.18
2023-05-18T09:16:12.112Z,55.72
2023-05-18T09:21:13.826Z,57.32
2023-05-18T09:26:15.732Z,54.70
2023-05-18T09:31:20.790Z,55.72
2023-05-18T09:36:26.316Z,55.66
2023-05-18T09:41:28.095Z,57.04
2023-05-18T09:46:35.820Z,56.26
2023-05-18T09:51:38.278Z,57.38
2023-05-18T09:56:39.961Z,59.63
2023-05-18T10:01:57.305Z,54.91
2023-05-18T10:06:59.010Z,57.09
2023-05-18T10:12:00.725Z,55.73
2023-05-18T10:17:14.930Z,56.21
2023-05-18T10:22:18.193Z,55.78
2023-05-18T10:27:26.862Z,58.13
2023-05-18T10:32:30.638Z,56.52
2023-05-18T10:37:35.180Z,54.64
2023-05-18T10:42:38.212Z,56.71
2023-05-18T10:47:43.427Z,55.18
2023-05-18T10:52:48.411Z,56.63
2023-05-18T10:57:54.838Z,53.75
2023-05-18T11:03:01.430Z,54.71
2023-05-18T11:08:03.750Z,56.23
2023-05-18T11:13:05.584Z,53.43
2023-05-18T11:18:15.511Z,55.44
2023-05-18T11:23:17.357Z,55.89
2023-05-18T11:28:22.546Z,57.07
2023-05-18T11:33:28.194Z,54.98
2023-05-18T11:38:48.464Z,56.81
2023-05-18T11:43:58.940Z,55.64
2023-05-18T11:49:04.521Z,55.22
2023-05-18T11:54:08.295Z,57.31
2023-05-18T11:59:14.203Z,55.65
2023-05-18T12:04:19.262Z,55.41
2023-05-18T12:09:21.164Z,54.80
2023-05-18T12:14:23.293Z,53.48
2023-05-18T12:19:26.529Z,54.16
2023-05-18T12:24:28.937Z,54.94
2023-05-18T12:29:30.854Z,54.10
2023-05-18T12:34:34.133Z,55.60
2023-05-18T12:39:35.986Z,53.90
2023-05-18T12:44:37.839Z,55.94
2023-05-18T12:49:43.011Z,56.53
2023-05-18T12:54:48.949Z,58.10
2023-05-18T12:59:50.788Z,56.41
2023-05-18T13:05:01.906Z,57.84
2023-05-18T13:10:08.161Z,55.03
2023-05-18T13:15:14.060Z,56.66
2023-05-18T13:20:17.200Z,55.90
2023-05-18T13:25:18.979Z,56.88
2023-05-18T13:30:21.013Z,57.14
2023-05-18T13:35:24.102Z,56.06
2023-05-18T13:40:25.941Z,59.07
2023-05-18T13:45:27.728Z,55.53
2023-05-18T13:50:33.777Z,57.34
2023-05-18T13:55:35.913Z,57.82
2023-05-18T14:00:37.668Z,57.51
2023-05-18T14:05:41.095Z,57.17
2023-05-18T14:10:42.771Z,58.45
2023-05-18T14:15:44.479Z,57.01
2023-05-18T14:20:47.665Z,59.52
2023-05-18T14:25:49.406Z,58.02
2023-05-18T14:30:51.139Z,54.94
2023-05-18T14:35:54.229Z,54.70
2023-05-18T14:40:56.115Z,56.70
2023-05-18T14:46:08.182Z,57.79
2023-05-18T14:51:12.167Z,56.08
2023-05-18T14:56:13.913Z,58.07
2023-05-18T15:01:15.704Z,57.30
2023-05-18T15:06:19.146Z,59.92
2023-05-18T15:11:20.928Z,55.65
2023-05-18T15:16:22.738Z,55.55
2023-05-18T15:21:26.076Z,57.20
2023-05-18T15:26:27.945Z,55.69
2023-05-18T15:31:29.688Z,56.30
2023-05-18T15:36:32.988Z,58.64
2023-05-18T15:41:35.117Z,56.62
2023-05-18T15:46:36.834Z,55.84
2023-05-18T15:51:40.227Z,59.26
2023-05-18T15:56:41.982Z,58.11
2023-05-18T16:01:43.769Z,59.92
2023-05-18T16:06:46.959Z,59.67
2023-05-18T16:11:48.704Z,57.56
2023-05-18T16:16:50.498Z,56.79
2023-05-18T16:21:53.533Z,58.05
2023-05-18T16:26:55.298Z,59.96
2023-05-18T16:31:57.147Z,63.54
2023-05-18T16:37:00.342Z,62.06
2023-05-18T16:42:02.046Z,58.77
2023-05-18T16:47:03.929Z,61.41
2023-05-18T16:52:07.506Z,61.64
2023-05-18T16:57:09.197Z,61.21
2023-05-18T17:02:11.026Z,62.11
2023-05-18T17:07:14.130Z,60.58
2023-05-18T17:12:15.885Z,61.14
2023-05-18T17:17:17.843Z,60.18
2023-05-18T17:22:20.923Z,59.75
2023-05-18T17:27:22.678Z,61.48
2023-05-18T17:32:24.509Z,60.70
2023-05-18T17:37:27.655Z,59.51
2023-05-18T17:42:29.363Z,57.84
2023-05-18T17:47:31.077Z,59.99
2023-05-18T17:52:34.114Z,62.66
2023-05-18T17:57:35.997Z,61.67
2023-05-18T18:02:37.724Z,59.89
2023-05-18T18:07:40.855Z,62.03
2023-05-18T18:12:42.764Z,58.13
2023-05-18T18:17:44.798Z,60.87
2023-05-18T18:22:48.000Z,59.25
2023-05-18T18:27:50.200Z,59.49
2023-05-18T18:32:51.879Z,59.34
2023-05-18T18:37:54.926Z,62.46
2023-05-18T18:42:56.629Z,60.38
2023-05-18T18:47:58.913Z,59.36
2023-05-18T18:53:02.004Z,64.07
2023-05-18T18:58:03.688Z,60.58
2023-05-18T19:03:05.431Z,59.00
2023-05-18T19:08:08.676Z,59.92
2023-05-18T19:13:10.453Z,60.74
2023-05-18T19:18:12.142Z,60.02
2023-05-18T19:23:15.384Z,61.95
2023-05-18T19:28:17.109Z,60.68
2023-05-18T19:33:18.905Z,59.52
2023-05-18T19:38:22.030Z,61.83
2023-05-18T19:43:23.794Z,64.31
2023-05-18T19:48:25.638Z,65.62
2023-05-18T19:53:28.714Z,66.25
2023-05-18T19:58:30.427Z,67.44
2023-05-18T20:03:32.261Z,67.91
2023-05-18T20:08:35.459Z,68.04
2023-05-18T20:13:37.114Z,68.20
2023-05-18T20:18:38.816Z,68.67
2023-05-18T20:23:41.968Z,69.07
2023-05-18T20:28:43.663Z,69.02
2023-05-18T20:33:45.389Z,69.66
2023-05-18T20:38:48.446Z,70.17
2023-05-18T20:43:50.156Z,70.96
2023-05-18T20:48:51.989Z,70.29
2023-05-18T20:53:55.090Z,71.38
2023-05-18T20:58:56.796Z,71.50
2023-05-18T21:03:58.736Z,70.99
2023-05-18T21:09:02.152Z,71.07
2023-05-18T21:14:03.836Z,71.30
2023-05-18T21:19:05.674Z,72.21
2023-05-18T21:24:08.870Z,72.25
2023-05-18T21:29:10.596Z,72.26
2023-05-18T21:34:12.302Z,72.04
2023-05-18T21:39:15.483Z,73.23
2023-05-18T21:44:17.229Z,72.73
2023-05-18T21:49:18.902Z,72.67
2023-05-18T21:54:21.965Z,73.26
2023-05-18T21:59:23.626Z,73.55
2023-05-18T22:04:25.481Z,73.51
2023-05-18T22:09:28.763Z,72.99
2023-05-18T22:14:30.597Z,72.92
2023-05-18T22:19:32.340Z,73.33
2023-05-18T22:24:35.442Z,72.77
2023-05-18T22:29:37.235Z,74.39
2023-05-18T22:34:38.947Z,73.81
2023-05-18T22:39:42.152Z,74.01
2023-05-18T22:44:44.318Z,73.28
2023-05-18T22:49:46.221Z,73.88
2023-05-18T22:54:49.808Z,74.01
2023-05-18T22:59:51.495Z,72.86
2023-05-18T23:04:53.183Z,73.77
2023-05-18T23:09:56.247Z,73.29
2023-05-18T23:14:58.114Z,74.38
2023-05-18T23:20:00.979Z,74.18
2023-05-18T23:25:04.947Z,73.65
2023-05-18T23:30:07.523Z,73.10
2023-05-18T23:35:12.536Z,74.04
2023-05-18T23:40:18.316Z,74.24
2023-05-18T23:45:21.121Z,74.51
2023-05-18T23:50:23.605Z,73.96
2023-05-18T23:55:27.826Z,74.70
